sensor_id;sensor_type;location;lat;lon;timestamp;pressure;altitude;pressure_sealevel;temperature;humidity
21658;BME280;10990;48.174;9.782;2023-07-22T00:01:21;94360.09;;;15.51;100.00
21658;BME280;10990;48.174;9.782;2023-07-22T00:03:48;94359.09;;;15.52;100.00
21658;BME280;10990;48.174;9.782;2023-07-22T00:06:14;94367.13;;;15.38;100.00
21658;BME280;10990;48.174;9.782;2023-07-22T00:08:41;94363.63;;;15.44;100.00
21658;BME280;10990;48.174;9.782;2023-07-22T00:11:08;94370.22;;;15.35;100.00
21658;BME280;10990;48.174;9.782;2023-07-22T00:13:34;94377.16;;;15.36;100.00
21658;BME280;10990;48.174;9.782;2023-07-22T00:16:03;94383.53;;;15.29;100.00
21658;BME280;10990;48.174;9.782;2023-07-22T00:18:30;94388.72;;;15.23;100.00
21658;BME280;10990;48.174;9.782;2023-07-22T00:20:57;94387.88;;;15.23;100.00
21658;BME280;10990;48.174;9.782;2023-07-22T00:23:24;94377.47;;;15.15;100.00
21658;BME280;10990;48.174;9.782;2023-07-22T00:25:51;94365.75;;;15.22;100.00
21658;BME280;10990;48.174;9.782;2023-07-22T00:28:18;94373.41;;;14.99;100.00
21658;BME280;10990;48.174;9.782;2023-07-22T00:30:45;94350.50;;;14.85;100.00
21658;BME280;10990;48.174;9.782;2023-07-22T00:33:13;94323.66;;;14.93;100.00
21658;BME280;10990;48.174;9.782;2023-07-22T00:35:39;94324.28;;;14.82;100.00
21658;BME280;10990;48.174;9.782;2023-07-22T00:38:06;94325.91;;;14.83;100.00
21658;BME280;10990;48.174;9.782;2023-07-22T00:40:33;94316.13;;;14.76;100.00
21658;BME280;10990;48.174;9.782;2023-07-22T00:43:00;94312.63;;;14.76;100.00
21658;BME280;10990;48.174;9.782;2023-07-22T00:45:27;94315.75;;;14.60;100.00
21658;BME280;10990;48.174;9.782;2023-07-22T00:47:54;94312.66;;;14.63;100.00
21658;BME280;10990;48.174;9.782;2023-07-22T00:50:23;94304.28;;;14.52;100.00
21658;BME280;10990;48.174;9.782;2023-07-22T00:52:51;94271.75;;;14.37;100.00
21658;BME280;10990;48.174;9.782;2023-07-22T00:55:18;94249.66;;;14.37;100.00
21658;BME280;10990;48.174;9.782;2023-07-22T00:57:45;94244.13;;;14.38;100.00
21658;BME280;10990;48.174;9.782;2023-07-22T01:00:13;94232.25;;;14.41;100.00
21658;BME280;10990;48.174;9.782;2023-07-22T01:02:41;94233.50;;;14.31;100.00
21658;BME280;10990;48.174;9.782;2023-07-22T01:05:10;94236.16;;;14.05;100.00
21658;BME280;10990;48.174;9.782;2023-07-22T01:07:39;94223.06;;;14.23;100.00
21658;BME280;10990;48.174;9.782;2023-07-22T01:10:07;94213.03;;;14.32;100.00
21658;BME280;10990;48.174;9.782;2023-07-22T01:12:35;94215.28;;;14.35;100.00
21658;BME280;10990;48.174;9.782;2023-07-22T01:15:02;94218.41;;;14.05;100.00
21658;BME280;10990;48.174;9.782;2023-07-22T01:17:33;94182.81;;;13.93;100.00
21658;BME280;10990;48.174;9.782;2023-07-22T01:20:01;94161.75;;;14.11;100.00
21658;BME280;10990;48.174;9.782;2023-07-22T01:22:29;94158.72;;;13.95;100.00
21658;BME280;10990;48.174;9.782;2023-07-22T01:24:58;94097.16;;;13.98;100.00
21658;BME280;10990;48.174;9.782;2023-07-22T01:27:24;94083.19;;;14.16;100.00
21658;BME280;10990;48.174;9.782;2023-07-22T01:29:51;94086.56;;;13.91;100.00
21658;BME280;10990;48.174;9.782;2023-07-22T01:32:18;94070.53;;;14.04;100.00
21658;BME280;10990;48.174;9.782;2023-07-22T01:34:45;94059.22;;;14.29;100.00
21658;BME280;10990;48.174;9.782;2023-07-22T01:37:12;94063.34;;;14.25;100.00
21658;BME280;10990;48.174;9.782;2023-07-22T01:39:39;94068.28;;;14.15;100.00
21658;BME280;10990;48.174;9.782;2023-07-22T01:42:07;94061.56;;;14.05;100.00
21658;BME280;10990;48.174;9.782;2023-07-22T01:44:33;94067.47;;;14.07;100.00
21658;BME280;10990;48.174;9.782;2023-07-22T01:47:02;94067.03;;;14.10;100.00
21658;BME280;10990;48.174;9.782;2023-07-22T01:49:29;94062.44;;;13.86;100.00
21658;BME280;10990;48.174;9.782;2023-07-22T01:51:55;94054.91;;;13.83;100.00
21658;BME280;10990;48.174;9.782;2023-07-22T01:54:22;94041.75;;;13.95;100.00
21658;BME280;10990;48.174;9.782;2023-07-22T01:56:49;94039.53;;;13.85;100.00
21658;BME280;10990;48.174;9.782;2023-07-22T01:59:17;94035.88;;;13.86;100.00
21658;BME280;10990;48.174;9.782;2023-07-22T02:01:44;94034.81;;;13.94;100.00
21658;BME280;10990;48.174;9.782;2023-07-22T02:04:10;94033.25;;;13.73;100.00
21658;BME280;10990;48.174;9.782;2023-07-22T02:06:37;94025.06;;;13.74;100.00
21658;BME280;10990;48.174;9.782;2023-07-22T02:09:04;94024.16;;;13.94;100.00
21658;BME280;10990;48.174;9.782;2023-07-22T02:11:34;94031.75;;;13.97;100.00
21658;BME280;10990;48.174;9.782;2023-07-22T02:14:01;94051.16;;;13.90;100.00
21658;BME280;10990;48.174;9.782;2023-07-22T02:16:33;94050.63;;;13.75;100.00
21658;BME280;10990;48.174;9.782;2023-07-22T02:19:00;94046.56;;;13.66;100.00
21658;BME280;10990;48.174;9.782;2023-07-22T02:21:27;94038.75;;;13.71;100.00
21658;BME280;10990;48.174;9.782;2023-07-22T02:23:54;94049.25;;;13.46;100.00
21658;BME280;10990;48.174;9.782;2023-07-22T02:26:21;94027.41;;;13.24;100.00
21658;BME280;10990;48.174;9.782;2023-07-22T02:28:47;94006.78;;;13.26;100.00
21658;BME280;10990;48.174;9.782;2023-07-22T02:31:14;93987.13;;;13.47;100.00
21658;BME280;10990;48.174;9.782;2023-07-22T02:33:42;93991.84;;;13.52;100.00
21658;BME280;10990;48.174;9.782;2023-07-22T02:36:09;93985.50;;;13.53;100.00
21658;BME280;10990;48.174;9.782;2023-07-22T02:38:35;93993.66;;;13.51;100.00
21658;BME280;10990;48.174;9.782;2023-07-22T02:41:02;93983.25;;;13.50;100.00
21658;BME280;10990;48.174;9.782;2023-07-22T02:43:31;93965.22;;;13.65;100.00
21658;BME280;10990;48.174;9.782;2023-07-22T02:45:59;93962.31;;;13.80;100.00
21658;BME280;10990;48.174;9.782;2023-07-22T02:48:26;93981.34;;;13.70;100.00
21658;BME280;10990;48.174;9.782;2023-07-22T02:50:54;93987.09;;;13.54;100.00
21658;BME280;10990;48.174;9.782;2023-07-22T02:53:21;93979.94;;;13.54;100.00
21658;BME280;10990;48.174;9.782;2023-07-22T02:55:48;93980.41;;;13.44;100.00
21658;BME280;10990;48.174;9.782;2023-07-22T02:58:15;93990.44;;;13.16;100.00
21658;BME280;10990;48.174;9.782;2023-07-22T03:00:41;93961.22;;;13.22;100.00
21658;BME280;10990;48.174;9.782;2023-07-22T03:03:09;93955.75;;;12.97;100.00
21658;BME280;10990;48.174;9.782;2023-07-22T03:05:35;93942.28;;;12.99;100.00
21658;BME280;10990;48.174;9.782;2023-07-22T03:08:04;93934.50;;;13.11;100.00
21658;BME280;10990;48.174;9.782;2023-07-22T03:10:32;93932.44;;;13.19;100.00
21658;BME280;10990;48.174;9.782;2023-07-22T03:12:59;93910.59;;;13.24;100.00
21658;BME280;10990;48.174;9.782;2023-07-22T03:15:27;93908.19;;;13.02;100.00
21658;BME280;10990;48.174;9.782;2023-07-22T03:17:54;93893.50;;;13.07;100.00
21658;BME280;10990;48.174;9.782;2023-07-22T03:20:23;93894.91;;;13.09;100.00
21658;BME280;10990;48.174;9.782;2023-07-22T03:22:50;93909.38;;;13.13;100.00
21658;BME280;10990;48.174;9.782;2023-07-22T03:25:19;93910.63;;;13.04;100.00
21658;BME280;10990;48.174;9.782;2023-07-22T03:27:46;93918.63;;;12.77;100.00
21658;BME280;10990;48.174;9.782;2023-07-22T03:30:14;93899.88;;;12.79;100.00
21658;BME280;10990;48.174;9.782;2023-07-22T03:32:42;93898.41;;;12.96;100.00
21658;BME280;10990;48.174;9.782;2023-07-22T03:35:09;93889.56;;;13.16;100.00
21658;BME280;10990;48.174;9.782;2023-07-22T03:37:36;93902.47;;;13.12;100.00
21658;BME280;10990;48.174;9.782;2023-07-22T03:40:04;93902.81;;;13.36;100.00
21658;BME280;10990;48.174;9.782;2023-07-22T03:42:34;93926.31;;;13.32;100.00
21658;BME280;10990;48.174;9.782;2023-07-22T03:45:01;93941.44;;;13.18;100.00
21658;BME280;10990;48.174;9.782;2023-07-22T03:47:28;93941.25;;;13.00;100.00
21658;BME280;10990;48.174;9.782;2023-07-22T03:49:55;93929.84;;;12.86;100.00
21658;BME280;10990;48.174;9.782;2023-07-22T03:52:21;93912.69;;;12.89;100.00
21658;BME280;10990;48.174;9.782;2023-07-22T03:54:48;93910.84;;;12.89;100.00
21658;BME280;10990;48.174;9.782;2023-07-22T03:57:15;93896.94;;;13.07;100.00
21658;BME280;10990;48.174;9.782;2023-07-22T03:59:43;93894.72;;;13.04;100.00
21658;BME280;10990;48.174;9.782;2023-07-22T04:02:09;93888.34;;;13.18;100.00
21658;BME280;10990;48.174;9.782;2023-07-22T04:04:37;93909.66;;;12.85;100.00
21658;BME280;10990;48.174;9.782;2023-07-22T04:07:04;93898.84;;;12.73;100.00
21658;BME280;10990;48.174;9.782;2023-07-22T04:09:33;93890.47;;;12.76;100.00
21658;BME280;10990;48.174;9.782;2023-07-22T04:12:00;93869.81;;;12.98;100.00
21658;BME280;10990;48.174;9.782;2023-07-22T04:14:26;93870.22;;;13.02;100.00
21658;BME280;10990;48.174;9.782;2023-07-22T04:16:54;93865.53;;;12.97;100.00
21658;BME280;10990;48.174;9.782;2023-07-22T04:19:21;93857.91;;;13.21;100.00
21658;BME280;10990;48.174;9.782;2023-07-22T04:21:48;93868.97;;;13.18;100.00
21658;BME280;10990;48.174;9.782;2023-07-22T04:24:14;93879.53;;;13.31;100.00
21658;BME280;10990;48.174;9.782;2023-07-22T04:26:43;93894.06;;;13.09;100.00
21658;BME280;10990;48.174;9.782;2023-07-22T04:29:10;93874.66;;;13.28;100.00
21658;BME280;10990;48.174;9.782;2023-07-22T04:31:38;93868.72;;;13.33;100.00
21658;BME280;10990;48.174;9.782;2023-07-22T04:34:06;93872.16;;;13.40;100.00
21658;BME280;10990;48.174;9.782;2023-07-22T04:36:33;93880.75;;;13.35;100.00
21658;BME280;10990;48.174;9.782;2023-07-22T04:39:00;93878.44;;;13.52;100.00
21658;BME280;10990;48.174;9.782;2023-07-22T04:41:26;93889.72;;;13.41;100.00
21658;BME280;10990;48.174;9.782;2023-07-22T04:43:53;93895.69;;;13.30;100.00
21658;BME280;10990;48.174;9.782;2023-07-22T04:46:20;93895.69;;;13.30;100.00
21658;BME280;10990;48.174;9.782;2023-07-22T04:48:47;93895.03;;;13.41;100.00
21658;BME280;10990;48.174;9.782;2023-07-22T04:51:15;93894.22;;;13.34;100.00
21658;BME280;10990;48.174;9.782;2023-07-22T04:53:41;93877.59;;;13.58;100.00
21658;BME280;10990;48.174;9.782;2023-07-22T04:56:08;93894.97;;;13.54;100.00
21658;BME280;10990;48.174;9.782;2023-07-22T04:58:35;93877.38;;;13.98;100.00
21658;BME280;10990;48.174;9.782;2023-07-22T05:01:01;93879.00;;;14.31;100.00
21658;BME280;10990;48.174;9.782;2023-07-22T05:03:28;93904.38;;;14.27;100.00
21658;BME280;10990;48.174;9.782;2023-07-22T05:05:55;93909.06;;;14.31;100.00
21658;BME280;10990;48.174;9.782;2023-07-22T05:08:24;93921.81;;;14.48;100.00
21658;BME280;10990;48.174;9.782;2023-07-22T05:10:51;93939.78;;;14.59;100.00
21658;BME280;10990;48.174;9.782;2023-07-22T05:13:17;93951.88;;;14.80;100.00
21658;BME280;10990;48.174;9.782;2023-07-22T05:15:44;93955.78;;;15.02;100.00
21658;BME280;10990;48.174;9.782;2023-07-22T05:18:11;93991.75;;;14.62;100.00
21658;BME280;10990;48.174;9.782;2023-07-22T05:20:38;93988.16;;;14.74;100.00
21658;BME280;10990;48.174;9.782;2023-07-22T05:23:05;93985.66;;;15.30;100.00
21658;BME280;10990;48.174;9.782;2023-07-22T05:25:33;93984.63;;;15.67;100.00
21658;BME280;10990;48.174;9.782;2023-07-22T05:27:59;94020.00;;;15.81;100.00
21658;BME280;10990;48.174;9.782;2023-07-22T05:30:26;94046.50;;;15.76;100.00
21658;BME280;10990;48.174;9.782;2023-07-22T05:32:53;94067.59;;;15.78;100.00
21658;BME280;10990;48.174;9.782;2023-07-22T05:35:19;94082.34;;;15.99;100.00
21658;BME280;10990;48.174;9.782;2023-07-22T05:37:46;94100.59;;;16.20;100.00
21658;BME280;10990;48.174;9.782;2023-07-22T05:40:13;94122.88;;;16.44;100.00
21658;BME280;10990;48.174;9.782;2023-07-22T05:42:41;94150.09;;;16.53;100.00
21658;BME280;10990;48.174;9.782;2023-07-22T05:45:08;94186.13;;;16.80;100.00
21658;BME280;10990;48.174;9.782;2023-07-22T05:47:39;94253.09;;;17.16;100.00
21658;BME280;10990;48.174;9.782;2023-07-22T05:50:06;94278.38;;;17.32;100.00
21658;BME280;10990;48.174;9.782;2023-07-22T05:52:33;94324.09;;;17.05;100.00
21658;BME280;10990;48.174;9.782;2023-07-22T05:55:00;94331.78;;;17.50;100.00
21658;BME280;10990;48.174;9.782;2023-07-22T05:57:27;94358.28;;;17.70;100.00
21658;BME280;10990;48.174;9.782;2023-07-22T05:59:55;94406.97;;;18.09;100.00
21658;BME280;10990;48.174;9.782;2023-07-22T06:02:21;94469.28;;;18.58;100.00
21658;BME280;10990;48.174;9.782;2023-07-22T06:04:48;94517.47;;;18.76;100.00
21658;BME280;10990;48.174;9.782;2023-07-22T06:07:15;94563.84;;;18.40;100.00
21658;BME280;10990;48.174;9.782;2023-07-22T06:09:41;94581.50;;;19.08;100.00
21658;BME280;10990;48.174;9.782;2023-07-22T06:12:08;94631.78;;;19.24;100.00
21658;BME280;10990;48.174;9.782;2023-07-22T06:14:35;94656.56;;;18.71;100.00
21658;BME280;10990;48.174;9.782;2023-07-22T06:17:03;94664.28;;;19.58;100.00
21658;BME280;10990;48.174;9.782;2023-07-22T06:19:30;94745.94;;;19.92;100.00
21658;BME280;10990;48.174;9.782;2023-07-22T06:21:56;94795.03;;;20.35;100.00
21658;BME280;10990;48.174;9.782;2023-07-22T06:24:23;94923.69;;;20.25;100.00
21658;BME280;10990;48.174;9.782;2023-07-22T06:26:50;94921.06;;;20.78;100.00
21658;BME280;10990;48.174;9.782;2023-07-22T06:29:16;95000.66;;;20.91;100.00
21658;BME280;10990;48.174;9.782;2023-07-22T06:31:43;95033.31;;;20.65;100.00
21658;BME280;10990;48.174;9.782;2023-07-22T06:34:11;95066.56;;;21.36;100.00
21658;BME280;10990;48.174;9.782;2023-07-22T06:36:38;95161.69;;;21.83;100.00
21658;BME280;10990;48.174;9.782;2023-07-22T06:39:05;95256.75;;;22.37;100.00
21658;BME280;10990;48.174;9.782;2023-07-22T06:41:31;95343.97;;;22.90;100.00
21658;BME280;10990;48.174;9.782;2023-07-22T06:43:58;95460.56;;;22.92;100.00
21658;BME280;10990;48.174;9.782;2023-07-22T06:46:25;95545.25;;;23.68;100.00
21658;BME280;10990;48.174;9.782;2023-07-22T06:48:52;95597.00;;;23.54;100.00
21658;BME280;10990;48.174;9.782;2023-07-22T06:51:20;95649.16;;;23.24;100.00
21658;BME280;10990;48.174;9.782;2023-07-22T06:53:46;95681.97;;;23.93;100.00
21658;BME280;10990;48.174;9.782;2023-07-22T06:56:13;95751.34;;;24.23;100.00
21658;BME280;10990;48.174;9.782;2023-07-22T06:58:40;95774.34;;;24.55;100.00
21658;BME280;10990;48.174;9.782;2023-07-22T07:01:06;95794.44;;;24.71;100.00
21658;BME280;10990;48.174;9.782;2023-07-22T07:03:33;95802.81;;;24.81;100.00
21658;BME280;10990;48.174;9.782;2023-07-22T07:06:00;95809.00;;;24.47;100.00
21658;BME280;10990;48.174;9.782;2023-07-22T07:08:28;95842.56;;;24.93;100.00
21658;BME280;10990;48.174;9.782;2023-07-22T07:10:55;95869.63;;;23.79;100.00
21658;BME280;10990;48.174;9.782;2023-07-22T07:13:22;95846.56;;;24.78;100.00
21658;BME280;10990;48.174;9.782;2023-07-22T07:15:49;95879.16;;;24.95;100.00
21658;BME280;10990;48.174;9.782;2023-07-22T07:18:15;95870.09;;;24.90;100.00
21658;BME280;10990;48.174;9.782;2023-07-22T07:20:43;95874.91;;;25.46;100.00
21658;BME280;10990;48.174;9.782;2023-07-22T07:23:10;95877.28;;;25.43;100.00
21658;BME280;10990;48.174;9.782;2023-07-22T07:25:38;95890.34;;;25.46;100.00
21658;BME280;10990;48.174;9.782;2023-07-22T07:28:05;95896.69;;;25.63;100.00
21658;BME280;10990;48.174;9.782;2023-07-22T07:30:31;95890.81;;;26.07;100.00
21658;BME280;10990;48.174;9.782;2023-07-22T07:32:58;95879.81;;;26.42;100.00
21658;BME280;10990;48.174;9.782;2023-07-22T07:35:25;95885.88;;;26.49;100.00
21658;BME280;10990;48.174;9.782;2023-07-22T07:37:52;95890.31;;;26.84;100.00
21658;BME280;10990;48.174;9.782;2023-07-22T07:40:18;95889.69;;;25.91;100.00
21658;BME280;10990;48.174;9.782;2023-07-22T07:42:46;95885.03;;;27.11;100.00
21658;BME280;10990;48.174;9.782;2023-07-22T07:45:13;95867.53;;;27.19;100.00
21658;BME280;10990;48.174;9.782;2023-07-22T07:47:40;95872.44;;;27.05;100.00
21658;BME280;10990;48.174;9.782;2023-07-22T07:50:07;95880.19;;;26.63;100.00
21658;BME280;10990;48.174;9.782;2023-07-22T07:52:34;95868.56;;;27.74;100.00
21658;BME280;10990;48.174;9.782;2023-07-22T07:55:00;95860.59;;;27.89;98.13
21658;BME280;10990;48.174;9.782;2023-07-22T07:57:28;95860.84;;;27.87;97.13
21658;BME280;10990;48.174;9.782;2023-07-22T07:59:56;95869.00;;;27.26;93.11
21658;BME280;10990;48.174;9.782;2023-07-22T08:02:22;95855.75;;;28.18;89.69
21658;BME280;10990;48.174;9.782;2023-07-22T08:04:49;95873.47;;;27.16;98.36
21658;BME280;10990;48.174;9.782;2023-07-22T08:07:16;95864.59;;;28.30;94.66
21658;BME280;10990;48.174;9.782;2023-07-22T08:09:43;95859.16;;;28.30;94.26
21658;BME280;10990;48.174;9.782;2023-07-22T08:12:13;95866.44;;;28.52;91.14
21658;BME280;10990;48.174;9.782;2023-07-22T08:14:40;95863.75;;;28.84;92.51
21658;BME280;10990;48.174;9.782;2023-07-22T08:17:08;95858.72;;;29.03;93.04
21658;BME280;10990;48.174;9.782;2023-07-22T08:19:35;95857.50;;;28.89;92.38
21658;BME280;10990;48.174;9.782;2023-07-22T08:22:02;95862.97;;;27.63;91.69
21658;BME280;10990;48.174;9.782;2023-07-22T08:24:29;95851.91;;;28.41;89.82
21658;BME280;10990;48.174;9.782;2023-07-22T08:26:55;95845.59;;;28.95;87.00
21658;BME280;10990;48.174;9.782;2023-07-22T08:29:22;95846.88;;;28.87;85.01
21658;BME280;10990;48.174;9.782;2023-07-22T08:31:49;95855.47;;;28.74;84.46
21658;BME280;10990;48.174;9.782;2023-07-22T08:34:17;95845.59;;;28.63;83.91
21658;BME280;10990;48.174;9.782;2023-07-22T08:36:43;95841.53;;;29.98;78.86
21658;BME280;10990;48.174;9.782;2023-07-22T08:39:10;95849.44;;;29.41;79.90
21658;BME280;10990;48.174;9.782;2023-07-22T08:41:37;95842.31;;;29.83;75.72
21658;BME280;10990;48.174;9.782;2023-07-22T08:44:04;95841.03;;;30.11;74.58
21658;BME280;10990;48.174;9.782;2023-07-22T08:46:33;95860.38;;;28.17;85.74
21658;BME280;10990;48.174;9.782;2023-07-22T08:49:01;95847.06;;;28.21;82.81
21658;BME280;10990;48.174;9.782;2023-07-22T08:51:32;95839.34;;;29.42;81.03
21658;BME280;10990;48.174;9.782;2023-07-22T08:54:00;95852.50;;;28.21;81.70
21658;BME280;10990;48.174;9.782;2023-07-22T08:56:29;95855.63;;;28.94;73.42
21658;BME280;10990;48.174;9.782;2023-07-22T08:58:56;95849.06;;;29.22;74.28
21658;BME280;10990;48.174;9.782;2023-07-22T09:01:24;95859.69;;;28.92;76.23
21658;BME280;10990;48.174;9.782;2023-07-22T09:03:52;95839.28;;;29.84;69.69
21658;BME280;10990;48.174;9.782;2023-07-22T09:06:22;95842.75;;;28.47;75.12
21658;BME280;10990;48.174;9.782;2023-07-22T09:08:50;95843.81;;;29.11;72.91
21658;BME280;10990;48.174;9.782;2023-07-22T09:11:19;95854.50;;;29.70;77.22
21658;BME280;10990;48.174;9.782;2023-07-22T09:13:45;95849.25;;;29.58;71.51
21658;BME280;10990;48.174;9.782;2023-07-22T09:16:13;95853.09;;;29.15;74.47
21658;BME280;10990;48.174;9.782;2023-07-22T09:18:42;95836.41;;;29.48;71.76
21658;BME280;10990;48.174;9.782;2023-07-22T09:21:08;95838.78;;;29.92;69.26
21658;BME280;10990;48.174;9.782;2023-07-22T09:23:37;95860.31;;;28.12;76.21
21658;BME280;10990;48.174;9.782;2023-07-22T09:26:13;95850.09;;;28.47;79.74
21658;BME280;10990;48.174;9.782;2023-07-22T09:28:51;95854.06;;;28.12;78.13
21658;BME280;10990;48.174;9.782;2023-07-22T09:31:19;95850.09;;;29.16;77.20
21658;BME280;10990;48.174;9.782;2023-07-22T09:33:46;95840.00;;;28.79;71.10
21658;BME280;10990;48.174;9.782;2023-07-22T09:36:13;95852.31;;;28.01;76.89
21658;BME280;10990;48.174;9.782;2023-07-22T09:38:40;95841.94;;;27.98;75.79
21658;BME280;10990;48.174;9.782;2023-07-22T09:41:06;95849.13;;;27.65;78.50
21658;BME280;10990;48.174;9.782;2023-07-22T09:43:37;95854.94;;;27.90;80.81
21658;BME280;10990;48.174;9.782;2023-07-22T09:46:09;95855.47;;;27.48;82.42
21658;BME280;10990;48.174;9.782;2023-07-22T09:48:40;95839.88;;;27.83;73.60
21658;BME280;10990;48.174;9.782;2023-07-22T09:51:12;95836.25;;;28.26;70.30
21658;BME280;10990;48.174;9.782;2023-07-22T09:53:44;95825.59;;;28.79;68.83
21658;BME280;10990;48.174;9.782;2023-07-22T09:56:11;95828.56;;;28.45;72.12
21658;BME280;10990;48.174;9.782;2023-07-22T09:58:39;95841.91;;;27.76;77.82
21658;BME280;10990;48.174;9.782;2023-07-22T10:01:07;95844.41;;;26.99;74.33
21658;BME280;10990;48.174;9.782;2023-07-22T10:03:36;95848.50;;;27.58;86.05
21658;BME280;10990;48.174;9.782;2023-07-22T10:06:05;95829.22;;;28.57;77.07
21658;BME280;10990;48.174;9.782;2023-07-22T10:08:33;95829.06;;;28.74;78.36
21658;BME280;10990;48.174;9.782;2023-07-22T10:11:03;95833.69;;;28.14;78.65
21658;BME280;10990;48.174;9.782;2023-07-22T10:13:32;95833.50;;;28.48;79.33
21658;BME280;10990;48.174;9.782;2023-07-22T10:16:00;95831.53;;;28.44;79.61
21658;BME280;10990;48.174;9.782;2023-07-22T10:18:28;95820.31;;;28.40;75.58
21658;BME280;10990;48.174;9.782;2023-07-22T10:20:57;95827.25;;;28.48;73.31
21658;BME280;10990;48.174;9.782;2023-07-22T10:23:25;95822.72;;;28.58;74.27
21658;BME280;10990;48.174;9.782;2023-07-22T10:25:52;95842.94;;;27.47;80.13
21658;BME280;10990;48.174;9.782;2023-07-22T10:28:19;95828.69;;;27.79;78.74
21658;BME280;10990;48.174;9.782;2023-07-22T10:30:47;95824.38;;;27.83;70.38
21658;BME280;10990;48.174;9.782;2023-07-22T10:33:16;95826.84;;;27.63;70.61
21658;BME280;10990;48.174;9.782;2023-07-22T10:35:43;95831.44;;;27.84;75.55
21658;BME280;10990;48.174;9.782;2023-07-22T10:38:28;95826.84;;;27.63;76.04
21658;BME280;10990;48.174;9.782;2023-07-22T10:40:55;95824.19;;;27.68;77.01
21658;BME280;10990;48.174;9.782;2023-07-22T10:43:24;95833.16;;;27.68;82.00
21658;BME280;10990;48.174;9.782;2023-07-22T10:45:53;95821.34;;;28.07;78.26
21658;BME280;10990;48.174;9.782;2023-07-22T10:48:25;95819.13;;;28.26;76.46
21658;BME280;10990;48.174;9.782;2023-07-22T10:50:53;95810.47;;;28.07;76.60
21658;BME280;10990;48.174;9.782;2023-07-22T10:53:30;95815.09;;;27.79;80.42
21658;BME280;10990;48.174;9.782;2023-07-22T10:56:13;95823.28;;;27.84;81.27
21658;BME280;10990;48.174;9.782;2023-07-22T10:59:00;95809.72;;;27.40;79.55
21658;BME280;10990;48.174;9.782;2023-07-22T11:01:35;95804.66;;;27.71;76.92
21658;BME280;10990;48.174;9.782;2023-07-22T11:04:09;95802.47;;;27.73;73.86
21658;BME280;10990;48.174;9.782;2023-07-22T11:06:37;95800.34;;;27.31;78.76
21658;BME280;10990;48.174;9.782;2023-07-22T11:09:04;95811.66;;;27.23;82.06
21658;BME280;10990;48.174;9.782;2023-07-22T11:11:39;95799.16;;;27.44;79.87
21658;BME280;10990;48.174;9.782;2023-07-22T11:14:14;95811.84;;;26.66;83.24
21658;BME280;10990;48.174;9.782;2023-07-22T11:16:42;95802.66;;;26.83;87.04
21658;BME280;10990;48.174;9.782;2023-07-22T11:19:10;95800.84;;;26.72;81.33
21658;BME280;10990;48.174;9.782;2023-07-22T11:21:37;95797.72;;;26.64;85.02
21658;BME280;10990;48.174;9.782;2023-07-22T11:24:04;95791.06;;;26.71;84.28
21658;BME280;10990;48.174;9.782;2023-07-22T11:26:31;95783.16;;;27.25;84.14
21658;BME280;10990;48.174;9.782;2023-07-22T11:28:58;95786.59;;;27.60;83.18
21658;BME280;10990;48.174;9.782;2023-07-22T11:31:30;95788.41;;;27.54;86.14
21658;BME280;10990;48.174;9.782;2023-07-22T11:33:57;95778.75;;;27.41;81.90
21658;BME280;10990;48.174;9.782;2023-07-22T11:36:25;95773.69;;;27.50;79.10
21658;BME280;10990;48.174;9.782;2023-07-22T11:38:52;95776.59;;;27.21;87.13
21658;BME280;10990;48.174;9.782;2023-07-22T11:41:20;95780.69;;;26.85;88.16
21658;BME280;10990;48.174;9.782;2023-07-22T11:43:47;95779.97;;;26.73;83.52
21658;BME280;10990;48.174;9.782;2023-07-22T11:46:14;95779.34;;;26.88;82.26
21658;BME280;10990;48.174;9.782;2023-07-22T11:48:49;95771.91;;;26.61;83.52
21658;BME280;10990;48.174;9.782;2023-07-22T11:51:17;95771.66;;;26.63;85.31
21658;BME280;10990;48.174;9.782;2023-07-22T11:53:47;95769.59;;;26.70;85.47
21658;BME280;10990;48.174;9.782;2023-07-22T11:56:18;95780.59;;;26.46;88.32
21658;BME280;10990;48.174;9.782;2023-07-22T11:58:49;95753.56;;;26.68;83.30
21658;BME280;10990;48.174;9.782;2023-07-22T12:01:16;95763.69;;;26.73;85.47
21658;BME280;10990;48.174;9.782;2023-07-22T12:03:42;95751.50;;;26.75;87.48
21658;BME280;10990;48.174;9.782;2023-07-22T12:06:10;95748.81;;;26.58;84.39
21658;BME280;10990;48.174;9.782;2023-07-22T12:08:37;95747.63;;;26.71;85.13
21658;BME280;10990;48.174;9.782;2023-07-22T12:11:15;95752.84;;;26.56;89.29
21658;BME280;10990;48.174;9.782;2023-07-22T12:13:42;95755.19;;;26.02;87.95
21658;BME280;10990;48.174;9.782;2023-07-22T12:16:12;95749.22;;;26.33;89.82
21658;BME280;10990;48.174;9.782;2023-07-22T12:18:42;95754.44;;;26.06;91.00
21658;BME280;10990;48.174;9.782;2023-07-22T12:21:09;95744.91;;;26.37;90.68
21658;BME280;10990;48.174;9.782;2023-07-22T12:23:36;95743.44;;;26.64;95.39
21658;BME280;10990;48.174;9.782;2023-07-22T12:26:03;95744.44;;;26.24;91.14
21658;BME280;10990;48.174;9.782;2023-07-22T12:28:31;95736.56;;;26.22;92.80
21658;BME280;10990;48.174;9.782;2023-07-22T12:30:58;95735.88;;;26.32;90.22
21658;BME280;10990;48.174;9.782;2023-07-22T12:33:25;95715.72;;;26.78;85.09
21658;BME280;10990;48.174;9.782;2023-07-22T12:35:53;95730.44;;;26.49;87.58
21658;BME280;10990;48.174;9.782;2023-07-22T12:38:20;95728.41;;;26.05;88.95
21658;BME280;10990;48.174;9.782;2023-07-22T12:40:46;95723.31;;;26.09;84.86
21658;BME280;10990;48.174;9.782;2023-07-22T12:43:13;95725.84;;;25.99;86.04
21658;BME280;10990;48.174;9.782;2023-07-22T12:45:41;95735.06;;;26.14;90.63
21658;BME280;10990;48.174;9.782;2023-07-22T12:48:08;95726.03;;;26.09;87.46
21658;BME280;10990;48.174;9.782;2023-07-22T12:50:35;95720.53;;;26.21;87.39
21658;BME280;10990;48.174;9.782;2023-07-22T12:53:02;95723.81;;;26.23;90.70
21658;BME280;10990;48.174;9.782;2023-07-22T12:55:30;95723.22;;;26.37;93.28
21658;BME280;10990;48.174;9.782;2023-07-22T12:57:57;95713.47;;;26.53;88.14